Time;durP1;ratioP1;P1;durP2;ratioP2;P2;SDS_P1;SDS_P2;PMS_P1;PMS_P2;Temp;Humidity;BMP_temperature;BMP_pressure;BME280_temperature;BME280_humidity;BME280_pressure;Samples;Min_cycle;Max_cycle;Signal;HPM_P1;HPM_P2
2022/10/14 00:03:55;;;;;;;6.83;5.10;;;16.40;48.80;;;;;;10443733;28;20235;-74
2022/10/14 00:09:00;;;;;;;4.67;4.30;;;16.40;48.70;;;;;;10441904;28;20236;-75
2022/10/14 00:14:08;;;;;;;4.90;3.97;;;16.40;48.80;;;;;;10441633;28;20250;-74
2022/10/14 00:19:11;;;;;;;4.40;4.00;;;16.40;48.80;;;;;;10441991;28;20251;-76
2022/10/14 00:24:16;;;;;;;5.17;4.67;;;16.40;48.40;;;;;;10443103;28;20245;-76
2022/10/14 00:29:20;;;;;;;4.70;4.17;;;16.40;48.40;;;;;;10443272;28;21245;-75
2022/10/14 00:34:23;;;;;;;5.73;4.90;;;16.40;48.60;;;;;;10442999;28;20275;-75
2022/10/14 00:39:27;;;;;;;6.50;5.87;;;16.40;48.40;;;;;;10442995;28;20229;-75
2022/10/14 00:44:59;;;;;;;5.00;4.60;;;16.40;48.70;;;;;;10443544;28;20224;-75
2022/10/14 00:50:03;;;;;;;5.93;5.07;;;16.40;49.20;;;;;;10441516;28;20439;-75
2022/10/14 00:55:12;;;;;;;5.27;4.87;;;16.40;48.80;;;;;;10442654;28;20650;-76
2022/10/14 01:00:19;;;;;;;4.83;4.43;;;16.40;48.90;;;;;;10442110;28;20662;-75
2022/10/14 01:05:22;;;;;;;6.23;5.63;;;16.40;49.10;;;;;;10441282;28;20691;-75
2022/10/14 01:10:33;;;;;;;6.70;5.70;;;16.40;48.70;;;;;;10442180;28;20817;-75
2022/10/14 01:15:46;;;;;;;5.83;5.30;;;16.40;49.20;;;;;;10440331;28;20229;-75
2022/10/14 01:21:09;;;;;;;4.97;4.50;;;16.30;49.90;;;;;;10438523;28;20264;-75
2022/10/14 01:26:34;;;;;;;5.63;5.13;;;16.30;49.40;;;;;;10439259;28;20237;-75
2022/10/14 01:31:44;;;;;;;6.23;5.67;;;16.30;49.40;;;;;;10440932;28;20274;-75
2022/10/14 01:36:52;;;;;;;5.77;5.27;;;16.30;49.30;;;;;;10440253;28;20282;-75
2022/10/14 01:41:59;;;;;;;5.50;5.10;;;16.40;49.10;;;;;;10440614;28;20225;-75
2022/10/14 01:47:06;;;;;;;6.27;5.70;;;16.40;49.10;;;;;;10440371;28;20232;-75
2022/10/14 01:52:18;;;;;;;6.93;6.07;;;16.40;49.20;;;;;;10441105;28;20240;-75
2022/10/14 01:57:26;;;;;;;7.90;6.17;;;16.40;49.50;;;;;;10440527;28;20635;-75
2022/10/14 02:02:30;;;;;;;5.80;5.30;;;16.40;49.20;;;;;;10440195;28;20258;-75
2022/10/14 02:07:38;;;;;;;6.50;5.90;;;16.40;49.20;;;;;;10440510;28;20228;-75
2022/10/14 02:12:52;;;;;;;6.33;5.77;;;16.40;49.50;;;;;;10439845;28;20711;-75
2022/10/14 02:18:03;;;;;;;5.80;5.30;;;16.40;49.70;;;;;;10438941;28;20583;-76
2022/10/14 02:23:10;;;;;;;5.80;5.40;;;16.40;49.60;;;;;;10438376;28;20229;-74
2022/10/14 02:28:18;;;;;;;7.37;5.83;;;16.40;49.60;;;;;;10436822;28;20225;-75
2022/10/14 02:33:28;;;;;;;6.37;5.77;;;16.40;49.70;;;;;;10438801;28;20415;-75
2022/10/14 02:38:33;;;;;;;6.40;5.80;;;16.40;49.80;;;;;;10437945;28;20656;-74
2022/10/14 02:43:36;;;;;;;7.83;6.37;;;16.40;49.30;;;;;;10437371;28;20225;-74
2022/10/14 02:48:41;;;;;;;6.67;5.97;;;16.40;49.10;;;;;;10443040;28;20641;-74
2022/10/14 02:53:44;;;;;;;8.43;7.53;;;16.40;49.50;;;;;;10443194;28;20229;-74
2022/10/14 02:58:47;;;;;;;9.87;8.87;;;16.30;49.20;;;;;;10444180;28;20236;-75
2022/10/14 03:03:51;;;;;;;9.50;8.33;;;16.30;49.40;;;;;;10443392;28;20648;-75
2022/10/14 03:08:54;;;;;;;9.43;8.63;;;16.30;50.10;;;;;;10443445;28;20233;-74
2022/10/14 03:13:57;;;;;;;9.67;8.77;;;16.30;50.00;;;;;;10442865;28;20229;-74
2022/10/14 03:19:02;;;;;;;9.70;8.80;;;16.30;50.20;;;;;;10442625;28;20229;-74
2022/10/14 03:24:06;;;;;;;8.50;7.80;;;16.30;50.70;;;;;;10442520;28;20307;-74
2022/10/14 03:29:09;;;;;;;7.23;6.57;;;16.30;50.30;;;;;;10441701;28;20233;-74
2022/10/14 03:34:13;;;;;;;6.63;5.73;;;16.20;50.10;;;;;;10442611;28;20643;-74
2022/10/14 03:39:16;;;;;;;5.67;5.20;;;16.20;50.40;;;;;;10441812;28;20237;-74
2022/10/14 03:44:19;;;;;;;6.47;5.53;;;16.20;50.00;;;;;;10442388;28;20232;-75
2022/10/14 03:49:24;;;;;;;6.23;5.13;;;16.20;50.00;;;;;;10441304;28;20229;-75
2022/10/14 03:54:27;;;;;;;5.90;5.40;;;16.20;50.50;;;;;;10441747;28;20221;-73
2022/10/14 03:59:30;;;;;;;6.03;5.43;;;16.20;50.20;;;;;;10440703;28;20392;-74
2022/10/14 04:04:35;;;;;;;5.80;5.20;;;16.20;50.10;;;;;;10440990;28;20228;-74
2022/10/14 04:09:38;;;;;;;5.13;4.63;;;16.10;50.30;;;;;;10441717;28;20260;-74
2022/10/14 04:14:41;;;;;;;4.07;3.77;;;16.10;50.70;;;;;;10440397;28;20278;-74
2022/10/14 04:19:45;;;;;;;4.20;3.80;;;16.10;50.00;;;;;;10440976;28;20233;-74
2022/10/14 04:24:48;;;;;;;6.27;4.50;;;16.10;50.30;;;;;;10439675;28;20363;-74
2022/10/14 04:29:52;;;;;;;5.80;4.23;;;16.10;50.00;;;;;;10439228;28;20278;-74
2022/10/14 04:34:57;;;;;;;4.47;4.07;;;16.10;49.90;;;;;;10440279;28;20663;-74
2022/10/14 04:40:00;;;;;;;4.27;3.90;;;16.10;50.00;;;;;;10439441;28;20236;-74
2022/10/14 04:45:03;;;;;;;4.43;4.13;;;16.10;49.80;;;;;;10439753;28;20645;-74
2022/10/14 04:50:09;;;;;;;4.40;4.00;;;16.10;49.70;;;;;;10438873;28;20599;-74
2022/10/14 04:55:12;;;;;;;4.13;3.83;;;16.10;49.90;;;;;;10439733;28;20237;-74
2022/10/14 05:00:16;;;;;;;5.80;4.73;;;16.10;49.40;;;;;;10439325;28;20236;-74
2022/10/14 05:05:20;;;;;;;4.50;4.13;;;16.10;49.20;;;;;;10438273;28;20236;-74
2022/10/14 05:10:23;;;;;;;4.83;4.40;;;16.10;49.20;;;;;;10438330;28;20233;-74
2022/10/14 05:15:26;;;;;;;5.37;4.50;;;16.00;49.20;;;;;;10438021;28;20240;-74
2022/10/14 05:20:31;;;;;;;3.97;3.67;;;16.00;49.30;;;;;;10438136;28;20237;-74
2022/10/14 05:25:34;;;;;;;5.03;4.20;;;16.00;49.50;;;;;;10437534;28;20233;-73
2022/10/14 05:30:37;;;;;;;4.97;4.47;;;16.00;50.60;;;;;;10436890;28;20236;-71
2022/10/14 05:35:42;;;;;;;7.27;4.27;;;16.10;50.00;;;;;;10410152;28;20225;-71
2022/10/14 05:41:02;;;;;;;5.23;4.77;;;16.10;49.80;;;;;;10408131;28;20256;-71
2022/10/14 05:46:05;;;;;;;6.27;4.87;;;16.20;49.50;;;;;;10412657;28;20289;-71
2022/10/14 05:51:09;;;;;;;4.70;4.30;;;16.20;49.40;;;;;;10409594;28;20229;-71
2022/10/14 05:56:13;;;;;;;5.77;4.57;;;16.20;49.40;;;;;;10406843;28;20220;-71
2022/10/14 06:01:16;;;;;;;5.27;4.87;;;16.10;49.20;;;;;;10407066;28;20229;-71
2022/10/14 06:06:21;;;;;;;6.30;4.90;;;16.10;49.20;;;;;;10406082;28;20302;-72
2022/10/14 06:11:30;;;;;;;5.97;5.47;;;16.10;49.30;;;;;;10409319;28;20227;-71
2022/10/14 06:16:34;;;;;;;7.23;6.57;;;16.10;49.30;;;;;;10407506;28;20221;-71
2022/10/14 06:21:38;;;;;;;8.13;7.23;;;16.10;49.50;;;;;;10411629;28;20229;-71
2022/10/14 06:26:41;;;;;;;6.93;6.33;;;16.10;49.90;;;;;;10421596;28;20781;-72
2022/10/14 06:31:44;;;;;;;6.93;6.23;;;16.10;49.80;;;;;;10425440;28;20234;-71
2022/10/14 06:36:49;;;;;;;6.90;6.20;;;16.10;49.90;;;;;;10420529;28;20283;-71
2022/10/14 06:41:52;;;;;;;7.40;6.77;;;16.10;50.00;;;;;;10422742;28;20233;-71
2022/10/14 06:46:55;;;;;;;8.77;7.87;;;16.20;50.20;;;;;;10421362;28;20234;-71
2022/10/14 06:52:00;;;;;;;8.87;8.00;;;16.20;50.10;;;;;;10418995;28;20237;-71
2022/10/14 06:57:03;;;;;;;8.67;7.83;;;16.20;50.30;;;;;;10426888;28;20284;-71
2022/10/14 07:02:06;;;;;;;9.10;7.60;;;16.20;50.00;;;;;;10424037;28;20233;-71
2022/10/14 07:07:11;;;;;;;6.60;6.00;;;16.20;50.20;;;;;;10420569;28;20239;-70
2022/10/14 07:12:14;;;;;;;7.43;6.73;;;16.30;50.60;;;;;;10425171;28;20236;-70
2022/10/14 07:17:17;;;;;;;10.90;8.20;;;16.30;50.50;;;;;;10422153;28;20279;-70
2022/10/14 07:22:22;;;;;;;6.97;6.30;;;16.30;50.70;;;;;;10424269;28;20697;-71
2022/10/14 07:27:26;;;;;;;9.17;8.27;;;16.40;51.10;;;;;;10421235;28;20237;-71
2022/10/14 07:32:29;;;;;;;7.90;7.00;;;16.40;51.10;;;;;;10421651;28;20235;-71
2022/10/14 07:37:33;;;;;;;7.57;6.80;;;16.50;51.20;;;;;;10416855;28;20290;-71
2022/10/14 07:42:36;;;;;;;7.53;6.90;;;16.50;51.60;;;;;;10419428;28;20230;-71
2022/10/14 07:47:39;;;;;;;7.20;6.57;;;16.60;51.70;;;;;;10419632;28;20229;-71
2022/10/14 07:52:44;;;;;;;9.57;8.67;;;16.70;51.80;;;;;;10418976;28;20233;-71
2022/10/14 07:57:47;;;;;;;8.87;8.07;;;16.70;52.40;;;;;;10419926;28;20237;-70
2022/10/14 08:02:50;;;;;;;7.83;7.07;;;16.80;51.80;;;;;;10422282;28;20234;-71
2022/10/14 08:07:54;;;;;;;6.87;6.37;;;16.90;51.90;;;;;;10419557;28;20727;-71
2022/10/14 08:12:58;;;;;;;6.87;6.37;;;17.00;52.50;;;;;;10417069;28;20683;-71
2022/10/14 08:18:01;;;;;;;7.73;7.03;;;17.00;52.00;;;;;;10416914;28;20224;-71
2022/10/14 08:23:06;;;;;;;6.93;6.30;;;17.10;52.10;;;;;;10419667;28;20221;-71
2022/10/14 08:28:09;;;;;;;6.73;6.13;;;17.10;52.70;;;;;;10417843;28;20233;-71
2022/10/14 08:33:13;;;;;;;6.43;5.87;;;17.10;52.10;;;;;;10421926;28;20261;-71
2022/10/14 08:38:17;;;;;;;7.20;6.50;;;17.20;52.40;;;;;;10416207;28;20229;-71
2022/10/14 08:43:25;;;;;;;6.50;5.70;;;17.20;52.70;;;;;;10416345;28;20294;-71
2022/10/14 08:48:29;;;;;;;6.43;5.83;;;17.30;53.30;;;;;;10418273;28;20229;-71
2022/10/14 08:53:38;;;;;;;5.60;5.10;;;17.40;53.10;;;;;;10417896;28;20303;-71
2022/10/14 08:58:43;;;;;;;5.70;5.20;;;17.50;53.70;;;;;;10417319;28;20912;-71
2022/10/14 09:03:46;;;;;;;6.53;5.23;;;17.70;53.70;;;;;;10414121;28;20275;-71
2022/10/14 09:08:55;;;;;;;5.13;4.73;;;17.90;53.80;;;;;;10415698;28;20235;-71
2022/10/14 09:14:01;;;;;;;5.53;5.03;;;18.10;53.00;;;;;;10415358;28;20283;-71
2022/10/14 09:19:12;;;;;;;5.67;5.00;;;18.30;53.00;;;;;;10419731;28;20871;-71
2022/10/14 09:24:20;;;;;;;5.10;4.60;;;18.40;52.20;;;;;;10413989;28;20255;-71
2022/10/14 09:29:27;;;;;;;4.90;4.33;;;18.50;52.20;;;;;;10416133;28;20233;-71
2022/10/14 09:34:34;;;;;;;4.97;4.57;;;18.70;52.30;;;;;;10415694;28;20283;-71
2022/10/14 09:39:40;;;;;;;4.77;4.37;;;18.90;52.10;;;;;;10411967;28;20233;-71
2022/10/14 09:44:43;;;;;;;5.67;4.70;;;19.10;52.10;;;;;;10414424;28;20236;-71
2022/10/14 09:49:47;;;;;;;4.47;4.07;;;19.30;51.70;;;;;;10421046;28;20226;-71
2022/10/14 09:54:58;;;;;;;4.07;3.77;;;19.50;51.50;;;;;;10418940;28;20233;-71
2022/10/14 10:00:05;;;;;;;4.20;3.80;;;19.70;50.80;;;;;;10424714;28;20232;-71
2022/10/14 10:05:13;;;;;;;4.50;4.10;;;19.90;50.80;;;;;;10426220;28;20228;-71
2022/10/14 10:10:22;;;;;;;3.50;3.20;;;20.10;49.60;;;;;;10425554;28;20225;-71
2022/10/14 10:15:25;;;;;;;2.90;2.60;;;20.30;49.00;;;;;;10422058;28;20230;-71
2022/10/14 10:20:32;;;;;;;3.40;3.10;;;20.30;49.00;;;;;;10422861;28;20286;-71
2022/10/14 10:25:37;;;;;;;2.93;2.73;;;20.50;49.20;;;;;;10425546;28;20221;-71
2022/10/14 10:30:48;;;;;;;3.73;3.43;;;20.50;48.20;;;;;;10418312;28;20228;-71
2022/10/14 10:36:20;;;;;;;3.33;3.00;;;20.50;46.70;;;;;;10425180;28;20251;-70
2022/10/14 10:41:42;;;;;;;2.90;2.57;;;20.60;47.40;;;;;;10412398;28;20568;-70
2022/10/14 10:46:59;;;;;;;3.30;3.00;;;20.60;47.00;;;;;;10418751;28;20228;-70
2022/10/14 10:52:11;;;;;;;2.30;2.10;;;20.70;46.70;;;;;;10421883;28;20231;-70
2022/10/14 10:57:38;;;;;;;2.23;2.03;;;20.80;46.00;;;;;;10421512;28;20229;-70
2022/10/14 11:02:55;;;;;;;2.27;2.17;;;20.90;45.30;;;;;;10421335;28;20231;-70
2022/10/14 11:13:33;;;;;;;2.50;2.30;;;21.10;46.30;;;;;;10418690;28;20680;-70
2022/10/14 11:18:46;;;;;;;2.30;2.10;;;21.20;44.70;;;;;;10417161;28;20699;-71
2022/10/14 11:24:00;;;;;;;2.37;1.97;;;21.30;45.00;;;;;;10421402;28;20237;-70
2022/10/14 11:29:17;;;;;;;2.43;2.10;;;21.30;44.80;;;;;;10421402;28;20225;-70
2022/10/14 11:34:36;;;;;;;2.70;1.93;;;21.40;44.50;;;;;;10418722;28;20240;-70
2022/10/14 11:39:45;;;;;;;2.00;1.80;;;21.50;43.50;;;;;;10419386;28;20279;-70
2022/10/14 11:45:01;;;;;;;2.33;1.87;;;21.50;43.70;;;;;;10417510;28;20282;-70
2022/10/14 11:50:15;;;;;;;2.17;2.00;;;21.50;42.90;;;;;;10419857;28;20647;-70
2022/10/14 11:55:22;;;;;;;2.87;2.03;;;21.50;43.10;;;;;;10419969;28;20241;-70
2022/10/14 12:00:47;;;;;;;3.17;2.13;;;21.50;43.80;;;;;;10421246;28;20233;-70
2022/10/14 12:06:33;;;;;;;1.93;1.83;;;21.50;43.30;;;;;;10413616;28;20240;-70
2022/10/14 12:11:42;;;;;;;2.03;1.63;;;21.50;41.90;;;;;;10416816;28;20235;-70
2022/10/14 12:16:49;;;;;;;2.13;1.93;;;21.40;42.30;;;;;;10417108;28;20731;-70
2022/10/14 12:21:57;;;;;;;2.97;2.50;;;21.30;42.40;;;;;;10420130;28;20274;-70
2022/10/14 12:27:03;;;;;;;2.50;2.30;;;21.30;42.70;;;;;;10416888;28;20232;-70
2022/10/14 12:32:19;;;;;;;3.03;1.90;;;21.30;43.20;;;;;;10411562;28;20233;-70
2022/10/14 12:37:53;;;;;;;1.93;1.57;;;21.30;42.40;;;;;;10420316;28;20230;-70
2022/10/14 12:43:12;;;;;;;1.60;1.50;;;21.30;42.30;;;;;;10422888;28;20220;-70
2022/10/14 12:48:21;;;;;;;3.43;1.97;;;21.30;41.40;;;;;;10416164;28;20228;-70
2022/10/14 12:53:27;;;;;;;1.90;1.80;;;21.30;41.80;;;;;;10415644;28;20280;-70
2022/10/14 12:58:33;;;;;;;2.33;2.07;;;21.30;42.40;;;;;;10416725;28;20310;-70
2022/10/14 13:03:44;;;;;;;2.97;1.90;;;21.20;41.80;;;;;;10411948;28;20221;-70
2022/10/14 13:09:18;;;;;;;2.60;1.80;;;21.20;42.00;;;;;;10417151;28;20889;-70
2022/10/14 13:14:24;;;;;;;2.00;1.80;;;21.20;41.60;;;;;;10412872;28;20228;-70
2022/10/14 13:19:47;;;;;;;2.87;1.73;;;21.10;42.50;;;;;;10414966;28;20594;-70
2022/10/14 13:24:51;;;;;;;1.57;1.47;;;21.10;41.80;;;;;;10412104;28;20240;-70
2022/10/14 13:30:04;;;;;;;1.83;1.63;;;21.20;42.90;;;;;;10419569;28;20722;-70
2022/10/14 13:35:17;;;;;;;2.10;1.50;;;21.20;41.10;;;;;;10414914;28;20221;-70
2022/10/14 13:40:25;;;;;;;2.77;1.43;;;21.20;41.40;;;;;;10414809;28;20233;-70
2022/10/14 13:45:33;;;;;;;1.50;1.40;;;21.30;42.40;;;;;;10413753;28;20416;-70
2022/10/14 13:50:43;;;;;;;1.50;1.37;;;21.30;41.60;;;;;;10417958;28;20234;-70
2022/10/14 13:55:50;;;;;;;4.07;1.70;;;21.30;41.60;;;;;;10414501;28;21116;-70
2022/10/14 14:01:02;;;;;;;3.97;2.67;;;21.30;41.80;;;;;;10415473;28;20248;-70
2022/10/14 14:06:13;;;;;;;3.13;2.90;;;21.30;41.00;;;;;;10412259;28;20229;-70
2022/10/14 14:11:21;;;;;;;3.20;2.90;;;21.30;41.30;;;;;;10417768;28;20298;-70
2022/10/14 14:16:28;;;;;;;3.40;3.13;;;21.30;41.30;;;;;;10413703;28;20233;-70
2022/10/14 14:21:33;;;;;;;3.30;3.00;;;21.30;41.50;;;;;;10411223;28;20229;-70
2022/10/14 14:26:38;;;;;;;2.83;2.63;;;21.30;41.40;;;;;;10413804;28;20217;-70
2022/10/14 14:31:41;;;;;;;2.37;1.90;;;21.30;41.70;;;;;;10417012;28;20236;-70
2022/10/14 14:37:06;;;;;;;1.57;1.47;;;21.20;42.00;;;;;;10412198;28;20340;-70
2022/10/14 14:42:34;;;;;;;1.60;1.50;;;21.20;41.60;;;;;;10419523;28;20757;-70
2022/10/14 14:47:38;;;;;;;1.90;1.80;;;21.20;41.70;;;;;;10420332;28;20702;-70
2022/10/14 14:52:43;;;;;;;2.13;1.80;;;21.20;42.60;;;;;;10421013;28;20644;-70
2022/10/14 14:57:56;;;;;;;1.97;1.70;;;21.10;42.10;;;;;;10419483;28;20680;-70
2022/10/14 15:03:02;;;;;;;1.73;1.60;;;21.10;41.00;;;;;;10420925;28;20221;-70
2022/10/14 15:08:18;;;;;;;2.07;1.60;;;20.90;41.20;;;;;;10420307;28;20290;-70
2022/10/14 15:13:27;;;;;;;1.67;1.57;;;20.70;41.40;;;;;;10424123;28;20236;-70
2022/10/14 15:18:31;;;;;;;1.90;1.80;;;20.50;41.70;;;;;;10422508;28;20225;-70
2022/10/14 15:23:41;;;;;;;1.77;1.60;;;20.40;42.40;;;;;;10423374;28;20229;-70
2022/10/14 15:28:44;;;;;;;3.60;2.00;;;20.30;42.20;;;;;;10420531;28;20234;-70
2022/10/14 15:33:49;;;;;;;5.00;2.20;;;20.20;42.90;;;;;;10421691;28;20237;-70
2022/10/14 15:38:57;;;;;;;3.17;2.17;;;20.10;42.50;;;;;;10418481;28;20322;-71
2022/10/14 15:44:01;;;;;;;2.47;2.00;;;19.90;42.60;;;;;;10418724;28;20217;-72
2022/10/14 15:49:12;;;;;;;2.67;2.30;;;19.80;43.20;;;;;;10423936;28;20228;-72
2022/10/14 15:54:17;;;;;;;3.03;2.40;;;19.70;43.30;;;;;;10426266;28;20232;-73
2022/10/14 15:59:20;;;;;;;2.10;1.90;;;19.60;43.50;;;;;;10419753;28;20616;-73
2022/10/14 16:04:26;;;;;;;1.67;1.57;;;19.50;43.90;;;;;;10421311;28;20307;-73
2022/10/14 16:09:31;;;;;;;2.37;1.70;;;19.50;43.90;;;;;;10421971;28;20239;-73
2022/10/14 16:14:34;;;;;;;2.40;1.60;;;19.50;43.90;;;;;;10425872;28;20326;-74
2022/10/14 16:19:37;;;;;;;2.43;1.80;;;19.40;44.00;;;;;;10422060;28;20239;-73
2022/10/14 16:24:42;;;;;;;2.13;1.87;;;19.30;44.20;;;;;;10425472;28;20757;-73
2022/10/14 16:29:45;;;;;;;2.63;1.77;;;19.30;44.40;;;;;;10419378;28;20286;-73
2022/10/14 16:34:48;;;;;;;2.20;2.00;;;19.20;44.30;;;;;;10420381;28;20278;-73
2022/10/14 16:39:52;;;;;;;3.13;2.20;;;19.20;44.50;;;;;;10419064;28;20907;-73
2022/10/14 16:44:56;;;;;;;11.77;7.37;;;19.20;44.70;;;;;;10425114;28;20894;-73
2022/10/14 16:49:59;;;;;;;5.20;4.40;;;19.20;44.70;;;;;;10417340;28;20232;-73
2022/10/14 16:55:04;;;;;;;3.70;3.40;;;19.20;44.50;;;;;;10426234;28;20228;-73
2022/10/14 17:00:08;;;;;;;2.70;2.50;;;19.10;44.80;;;;;;10422470;28;20220;-73
2022/10/14 17:05:12;;;;;;;2.60;2.40;;;19.10;44.80;;;;;;10417686;28;20217;-73
2022/10/14 17:10:17;;;;;;;3.53;3.10;;;19.10;44.70;;;;;;10419780;28;20726;-73
2022/10/14 17:15:21;;;;;;;4.50;3.00;;;19.00;45.00;;;;;;10417954;28;20227;-73
2022/10/14 17:20:25;;;;;;;3.37;3.07;;;19.00;44.90;;;;;;10410474;28;20325;-73
2022/10/14 17:25:29;;;;;;;3.63;3.30;;;19.00;44.80;;;;;;10420347;28;20225;-73
2022/10/14 17:30:33;;;;;;;3.67;3.37;;;18.90;45.00;;;;;;10429472;28;20229;-74
2022/10/14 17:35:36;;;;;;;3.03;2.73;;;18.80;44.90;;;;;;10423080;28;20637;-74
2022/10/14 17:40:40;;;;;;;4.00;3.60;;;18.80;45.10;;;;;;10423876;28;20241;-74
2022/10/14 17:45:43;;;;;;;3.33;2.93;;;18.80;45.30;;;;;;10419303;28;20287;-75
2022/10/14 17:50:47;;;;;;;2.20;2.00;;;18.70;45.20;;;;;;10422993;28;20233;-74
2022/10/14 17:55:52;;;;;;;3.07;2.30;;;18.70;45.30;;;;;;10428089;28;20236;-74
2022/10/14 18:01:06;;;;;;;2.30;2.10;;;18.70;45.40;;;;;;10425258;28;20786;-74
2022/10/14 18:06:12;;;;;;;3.30;2.80;;;18.80;45.70;;;;;;10421939;28;20872;-74
2022/10/14 18:11:17;;;;;;;2.60;2.30;;;18.80;45.40;;;;;;10423076;28;20240;-74
2022/10/14 18:16:20;;;;;;;2.97;2.47;;;18.70;45.40;;;;;;10434403;28;20232;-74
2022/10/14 18:21:23;;;;;;;2.47;2.10;;;18.70;45.30;;;;;;10441369;28;20229;-76
2022/10/14 18:26:28;;;;;;;3.73;2.17;;;18.70;45.30;;;;;;10435721;28;20228;-76
2022/10/14 18:31:32;;;;;;;2.80;2.50;;;18.70;45.60;;;;;;10434655;28;20302;-76
2022/10/14 18:36:35;;;;;;;2.10;2.00;;;18.70;45.50;;;;;;10432878;28;20240;-76
2022/10/14 18:41:40;;;;;;;2.83;2.63;;;18.70;45.40;;;;;;10431906;28;20955;-76
2022/10/14 18:46:44;;;;;;;4.67;3.40;;;18.70;45.80;;;;;;10427323;28;20242;-76
2022/10/14 18:51:47;;;;;;;5.23;2.80;;;18.70;45.60;;;;;;10439171;28;20233;-76
2022/10/14 18:56:53;;;;;;;6.00;3.93;;;18.70;45.70;;;;;;10439066;28;20286;-76
2022/10/14 19:01:56;;;;;;;2.90;2.70;;;18.60;46.00;;;;;;10432738;28;20229;-76
2022/10/14 19:07:00;;;;;;;3.03;2.67;;;18.60;45.90;;;;;;10438440;28;20254;-76
2022/10/14 19:12:39;;;;;;;3.57;3.27;;;18.50;45.90;;;;;;10429464;28;20212;-76
2022/10/14 19:17:28;;;;;;;3.60;3.30;;;18.50;46.30;;;;;;10430415;28;20237;-75
2022/10/14 19:22:31;;;;;;;4.23;3.40;;;18.50;46.10;;;;;;10423212;28;20240;-74
2022/10/14 19:27:35;;;;;;;4.90;4.13;;;18.40;46.10;;;;;;10430006;28;20278;-72
2022/10/14 19:32:39;;;;;;;3.20;3.00;;;18.50;46.50;;;;;;10430596;28;20275;-72
2022/10/14 19:37:42;;;;;;;3.43;3.13;;;18.40;46.20;;;;;;10440858;28;20228;-70
2022/10/14 19:42:47;;;;;;;3.97;3.23;;;18.40;46.40;;;;;;10442390;28;20240;-70
2022/10/14 19:47:50;;;;;;;3.80;3.50;;;18.40;46.70;;;;;;10441328;28;20287;-71
2022/10/14 19:52:53;;;;;;;4.13;3.47;;;18.40;46.40;;;;;;10433465;28;20233;-72
2022/10/14 19:57:57;;;;;;;3.87;3.57;;;18.40;46.50;;;;;;10424651;28;20271;-72
2022/10/14 20:03:01;;;;;;;4.50;3.73;;;18.40;46.80;;;;;;10436327;28;20220;-72
2022/10/14 20:08:04;;;;;;;3.80;3.50;;;18.30;46.50;;;;;;10425497;28;20692;-73
2022/10/14 20:13:08;;;;;;;4.67;3.80;;;18.30;46.70;;;;;;10429248;28;20324;-72
2022/10/14 20:18:11;;;;;;;5.57;3.80;;;18.30;47.20;;;;;;10412255;28;20275;-72
2022/10/14 20:23:15;;;;;;;4.80;3.50;;;18.20;47.20;;;;;;10425126;28;20572;-72
2022/10/14 20:28:19;;;;;;;4.07;3.67;;;18.20;47.20;;;;;;10441119;28;20585;-72
2022/10/14 20:33:23;;;;;;;4.07;3.67;;;18.20;47.20;;;;;;10424804;28;20337;-72
2022/10/14 20:38:26;;;;;;;5.03;3.50;;;18.20;47.20;;;;;;10422187;28;20229;-72
2022/10/14 20:43:30;;;;;;;4.63;4.23;;;18.10;47.10;;;;;;10434153;28;20746;-74
2022/10/14 20:48:36;;;;;;;4.60;4.20;;;18.20;47.20;;;;;;10433944;28;20240;-74
2022/10/14 20:53:39;;;;;;;4.33;3.97;;;18.10;47.10;;;;;;10422812;28;21078;-73
2022/10/14 20:58:54;;;;;;;3.90;3.60;;;18.10;47.10;;;;;;10417049;28;20232;-73
2022/10/14 21:04:00;;;;;;;4.53;3.70;;;18.10;47.60;;;;;;10412586;28;20233;-72
2022/10/14 21:09:04;;;;;;;3.73;3.40;;;18.10;47.80;;;;;;10407845;28;20860;-73
2022/10/14 21:14:08;;;;;;;3.53;3.23;;;18.20;47.20;;;;;;10413402;28;20226;-73
2022/10/14 21:19:12;;;;;;;5.07;3.77;;;18.20;47.60;;;;;;10420904;28;20253;-73
2022/10/14 21:24:16;;;;;;;4.07;3.67;;;18.10;47.10;;;;;;10413365;28;20271;-73
2022/10/14 21:29:21;;;;;;;4.07;3.67;;;18.20;47.20;;;;;;10408450;28;20225;-72
2022/10/14 21:34:24;;;;;;;4.10;3.70;;;18.20;47.90;;;;;;10419621;28;20228;-72
2022/10/14 21:39:28;;;;;;;3.80;3.47;;;18.20;47.20;;;;;;10413401;28;20233;-72
2022/10/14 21:44:32;;;;;;;3.87;3.47;;;18.20;47.50;;;;;;10422960;28;20229;-73
2022/10/14 21:49:35;;;;;;;4.00;3.53;;;18.30;47.90;;;;;;10432456;28;20239;-72
2022/10/14 21:54:39;;;;;;;3.97;3.57;;;18.30;47.20;;;;;;10426270;28;20315;-72
2022/10/14 21:59:43;;;;;;;6.43;4.60;;;18.40;47.30;;;;;;10437345;28;20240;-73
2022/10/14 22:04:46;;;;;;;4.53;4.13;;;18.40;47.60;;;;;;10421117;28;20229;-72
2022/10/14 22:09:50;;;;;;;4.83;4.43;;;18.40;47.30;;;;;;10423785;28;21033;-72
2022/10/14 22:14:54;;;;;;;3.73;3.43;;;18.40;47.30;;;;;;10431786;28;20282;-73
2022/10/14 22:19:58;;;;;;;2.90;2.70;;;18.40;47.60;;;;;;10426979;28;20256;-73
2022/10/14 22:25:01;;;;;;;2.57;2.33;;;18.40;47.30;;;;;;10421900;28;20225;-72
2022/10/14 22:30:07;;;;;;;2.33;2.13;;;18.30;47.20;;;;;;10428642;28;20283;-72
2022/10/14 22:35:10;;;;;;;2.77;2.57;;;18.30;47.60;;;;;;10427297;28;20222;-72
2022/10/14 22:40:13;;;;;;;2.70;2.50;;;18.30;47.20;;;;;;10432803;28;20234;-73
2022/10/14 22:45:18;;;;;;;2.87;2.30;;;18.30;47.20;;;;;;10425757;28;20221;-74
2022/10/14 22:50:21;;;;;;;5.07;2.70;;;18.20;47.70;;;;;;10421543;28;20229;-72
2022/10/14 22:55:24;;;;;;;3.83;2.27;;;18.20;47.40;;;;;;10414844;28;20317;-72
2022/10/14 23:00:29;;;;;;;3.70;2.07;;;18.20;47.20;;;;;;10430633;28;20300;-73
2022/10/14 23:05:32;;;;;;;2.00;1.90;;;18.10;47.80;;;;;;10427597;28;20316;-73
2022/10/14 23:10:36;;;;;;;1.73;1.63;;;18.20;47.60;;;;;;10431828;28;20810;-72
2022/10/14 23:15:41;;;;;;;2.47;1.60;;;18.00;47.50;;;;;;10423670;28;20257;-74
2022/10/14 23:20:44;;;;;;;3.00;1.67;;;18.00;48.10;;;;;;10432933;28;20237;-73
2022/10/14 23:25:47;;;;;;;2.97;1.63;;;17.90;48.00;;;;;;10426072;28;20232;-72
2022/10/14 23:30:52;;;;;;;2.97;2.20;;;17.90;48.20;;;;;;10425879;28;20230;-72
2022/10/14 23:35:55;;;;;;;2.37;2.27;;;17.90;48.60;;;;;;10426618;28;20229;-72
2022/10/14 23:40:59;;;;;;;1.90;1.80;;;17.90;48.20;;;;;;10429388;28;20259;-72
2022/10/14 23:46:07;;;;;;;1.40;1.30;;;17.80;48.40;;;;;;10420863;28;20213;-72
2022/10/14 23:51:11;;;;;;;2.47;1.53;;;17.70;49.10;;;;;;10426050;28;20229;-72
2022/10/14 23:56:14;;;;;;;1.40;1.30;;;17.60;48.80;;;;;;10425849;28;20229;-72
